Time;durP1;ratioP1;P1;durP2;ratioP2;P2;SDS_P1;SDS_P2;PMS_P1;PMS_P2;Temp;Humidity;BMP_temperature;BMP_pressure;BME280_temperature;BME280_humidity;BME280_pressure;Samples;Min_cycle;Max_cycle;Signal;HPM_P1;HPM_P2
2023/01/31 00:00:23;;;;;;;10.20;6.00;;;;;;;1.94;100.00;151865.41;5024060;28;20453;-75
2023/01/31 00:02:49;;;;;;;8.17;5.00;;;;;;;1.94;100.00;151865.41;5008993;28;21002;-76
2023/01/31 00:05:18;;;;;;;8.03;5.20;;;;;;;1.98;100.00;151875.72;5003495;28;20488;-75
2023/01/31 00:07:45;;;;;;;8.13;5.70;;;;;;;1.92;100.00;151860.28;5004727;28;20795;-75
2023/01/31 00:10:12;;;;;;;8.07;4.93;;;;;;;1.90;100.00;151855.16;5007435;28;20454;-75
2023/01/31 00:12:40;;;;;;;7.17;4.40;;;;;;;1.89;100.00;151851.25;5023461;28;20449;-76
2023/01/31 00:15:07;;;;;;;6.10;4.53;;;;;;;1.83;100.00;151838.41;5013044;28;20434;-76
2023/01/31 00:17:34;;;;;;;6.50;4.50;;;;;;;1.85;100.00;151842.28;5012893;28;20570;-75
2023/01/31 00:20:00;;;;;;;8.47;5.00;;;;;;;1.82;100.00;151834.56;5022536;28;20485;-75
2023/01/31 00:22:27;;;;;;;10.40;5.20;;;;;;;1.79;100.00;151828.16;5008896;28;20566;-76
2023/01/31 00:24:54;;;;;;;6.13;4.40;;;;;;;1.82;100.00;151834.56;5006956;28;20502;-75
2023/01/31 00:27:20;;;;;;;7.90;4.80;;;;;;;1.79;100.00;151828.16;5007353;28;20454;-75
2023/01/31 00:29:48;;;;;;;9.07;5.50;;;;;;;1.75;100.00;151817.84;5026873;28;20463;-75
2023/01/31 00:32:16;;;;;;;6.37;4.53;;;;;;;1.73;100.00;151811.41;4995115;28;20471;-75
2023/01/31 00:34:43;;;;;;;7.33;4.73;;;;;;;1.67;100.00;151795.97;4999914;28;20451;-76
2023/01/31 00:37:12;;;;;;;7.50;5.67;;;;;;;1.69;100.00;151801.16;5014146;28;20516;-76
2023/01/31 00:39:40;;;;;;;7.13;5.17;;;;;;;1.63;100.00;151785.72;5008344;28;20467;-76
2023/01/31 00:42:06;;;;;;;7.87;5.47;;;;;;;1.61;100.00;151780.59;5012935;28;20564;-75
2023/01/31 00:44:33;;;;;;;7.47;4.33;;;;;;;1.61;100.00;151780.59;5011843;28;20947;-75
2023/01/31 00:47:01;;;;;;;8.50;4.93;;;;;;;1.56;100.00;151767.75;5006341;28;21132;-75
2023/01/31 00:49:28;;;;;;;10.50;4.77;;;;;;;1.53;100.00;151760.03;5007336;28;20449;-76
2023/01/31 00:51:54;;;;;;;8.73;4.90;;;;;;;1.51;100.00;151754.91;4996662;28;20532;-75
2023/01/31 00:54:21;;;;;;;9.63;4.63;;;;;;;1.49;100.00;151749.72;4995148;28;20545;-76
2023/01/31 00:56:49;;;;;;;7.23;5.00;;;;;;;1.44;100.00;151736.88;5021637;28;20491;-75
2023/01/31 00:59:15;;;;;;;8.40;4.77;;;;;;;1.43;100.00;151734.34;4994416;28;20453;-76
2023/01/31 01:01:42;;;;;;;8.23;5.13;;;;;;;1.39;100.00;151724.03;5003324;28;20553;-75
2023/01/31 01:04:10;;;;;;;6.00;4.60;;;;;;;1.39;100.00;151724.03;5008277;28;20466;-76
2023/01/31 01:06:38;;;;;;;8.83;4.77;;;;;;;1.39;100.00;151724.03;4994844;28;20457;-75
2023/01/31 01:09:05;;;;;;;8.30;4.83;;;;;;;1.37;100.00;151718.91;4979943;28;20442;-76
2023/01/31 01:11:33;;;;;;;8.73;4.87;;;;;;;1.39;100.00;151725.34;4994551;28;20839;-75
2023/01/31 01:14:01;;;;;;;6.50;4.33;;;;;;;1.38;100.00;151721.50;4996364;28;20454;-75
2023/01/31 01:16:33;;;;;;;8.60;4.73;;;;;;;1.38;100.00;151721.50;4992529;28;20550;-76
2023/01/31 01:19:01;;;;;;;8.50;5.17;;;;;;;1.40;100.00;151727.94;4995789;28;20458;-76
2023/01/31 01:21:30;;;;;;;8.47;4.33;;;;;;;1.41;100.00;151730.47;5012754;28;20508;-76
2023/01/31 01:24:01;;;;;;;6.97;4.20;;;;;;;1.38;100.00;151721.50;5005324;28;20450;-75
2023/01/31 01:26:29;;;;;;;6.40;4.10;;;;;;;1.34;100.00;151712.50;5007231;28;20427;-76
2023/01/31 01:28:57;;;;;;;7.37;4.03;;;;;;;1.31;100.00;151703.50;4997975;28;20457;-76
2023/01/31 01:31:28;;;;;;;6.00;4.30;;;;;;;1.33;100.00;151708.63;5011030;28;20851;-75
2023/01/31 01:33:57;;;;;;;7.33;4.20;;;;;;;1.37;100.00;151718.91;4974957;28;20798;-76
2023/01/31 01:36:25;;;;;;;4.83;4.33;;;;;;;1.33;100.00;151708.63;4985628;28;20446;-76
2023/01/31 01:38:54;;;;;;;5.63;4.10;;;;;;;1.36;100.00;151716.31;4999268;28;20525;-76
2023/01/31 01:41:23;;;;;;;5.73;3.93;;;;;;;1.34;100.00;151711.19;4983627;28;20449;-76
2023/01/31 01:43:52;;;;;;;7.93;4.30;;;;;;;1.34;100.00;151712.50;4984485;28;20470;-76
2023/01/31 01:46:24;;;;;;;8.10;4.50;;;;;;;1.35;100.00;151713.78;4974414;28;20486;-76
2023/01/31 01:48:53;;;;;;;5.33;3.77;;;;;;;1.31;100.00;151703.50;4975739;28;20549;-76
2023/01/31 01:51:21;;;;;;;6.67;3.87;;;;;;;1.30;100.00;151700.94;4980632;28;20490;-76
2023/01/31 01:53:50;;;;;;;7.80;4.70;;;;;;;1.30;100.00;151702.19;4984202;28;21016;-76
2023/01/31 01:56:21;;;;;;;8.10;4.53;;;;;;;1.31;100.00;151703.50;4973641;28;20446;-76
2023/01/31 01:58:51;;;;;;;6.67;4.30;;;;;;;1.33;100.00;151708.63;5016198;28;20560;-76
2023/01/31 02:01:18;;;;;;;15.20;5.17;;;;;;;1.34;100.00;151712.50;4980729;28;20480;-75
2023/01/31 02:03:47;;;;;;;7.27;4.33;;;;;;;1.31;100.00;151703.50;4972176;28;20460;-76
2023/01/31 02:06:15;;;;;;;5.43;4.00;;;;;;;1.29;100.00;151698.38;4992289;28;20458;-76
2023/01/31 02:08:42;;;;;;;8.97;4.03;;;;;;;1.31;100.00;151703.50;4989424;28;20569;-76
2023/01/31 02:11:15;;;;;;;5.10;3.73;;;;;;;1.28;100.00;151695.78;4972700;28;20872;-76
2023/01/31 02:13:46;;;;;;;6.13;4.20;;;;;;;1.26;100.00;151690.66;4989035;28;20572;-76
2023/01/31 02:16:14;;;;;;;5.70;4.00;;;;;;;1.23;100.00;151685.53;5003467;28;20451;-76
2023/01/31 02:18:41;;;;;;;6.00;4.67;;;;;;;1.21;100.00;151679.09;5024281;28;20425;-76
2023/01/31 02:21:27;;;;;;;7.67;4.60;;;;;;;1.19;100.00;151673.97;4974445;28;20976;-76
2023/01/31 02:24:13;;;;;;;4.60;3.73;;;;;;;1.14;100.00;151662.38;5012703;28;20471;-76
2023/01/31 02:27:05;;;;;;;9.60;4.30;;;;;;;1.13;100.00;151658.53;4992030;28;20979;-76
2023/01/31 02:29:51;;;;;;;6.37;4.50;;;;;;;1.09;100.00;151649.53;4990522;28;20445;-76
2023/01/31 02:32:39;;;;;;;6.37;4.77;;;;;;;1.11;100.00;151654.66;4977385;28;20482;-77
2023/01/31 02:35:10;;;;;;;7.97;4.77;;;;;;;1.06;100.00;151641.81;4979222;28;20958;-77
2023/01/31 02:37:43;;;;;;;4.97;3.80;;;;;;;1.10;100.00;151652.13;4971934;28;20484;-77
2023/01/31 02:40:17;;;;;;;6.50;4.03;;;;;;;1.10;100.00;151652.13;4963033;28;20446;-76
2023/01/31 02:42:50;;;;;;;6.77;4.60;;;;;;;1.08;100.00;151647.00;4968614;28;20493;-77
2023/01/31 02:45:22;;;;;;;5.20;3.80;;;;;;;1.08;100.00;151645.69;4995603;28;20541;-76
2023/01/31 02:48:03;;;;;;;6.73;4.23;;;;;;;1.08;100.00;151645.69;4972676;28;20456;-76
2023/01/31 02:50:36;;;;;;;9.60;4.93;;;;;;;1.06;100.00;151641.81;4951710;28;20444;-77
2023/01/31 02:53:06;;;;;;;5.43;4.60;;;;;;;1.04;100.00;151636.69;4986597;28;20494;-77
2023/01/31 02:58:22;;;;;;;7.70;4.20;;;;;;;1.07;100.00;151644.41;4962885;28;20533;-77
2023/01/31 03:00:49;;;;;;;5.33;3.60;;;;;;;1.07;100.00;151643.13;4969491;28;20447;-77
2023/01/31 03:03:22;;;;;;;5.87;4.67;;;;;;;1.09;100.00;151648.25;4967949;28;20477;-77
2023/01/31 03:06:13;;;;;;;9.87;4.83;;;;;;;1.09;100.00;151649.53;4956231;28;20442;-77
2023/01/31 03:08:43;;;;;;;8.57;4.00;;;;;;;1.08;100.00;151647.00;4987189;28;20451;-77
2023/01/31 03:11:11;;;;;;;6.77;3.77;;;;;;;1.11;100.00;151653.41;4970800;28;20459;-77
2023/01/31 03:13:46;;;;;;;6.33;4.20;;;;;;;1.09;100.00;151649.53;4973089;28;20447;-77
2023/01/31 03:19:12;;;;;;;5.73;3.87;;;;;;;1.09;100.00;151649.53;4971188;28;20443;-76
2023/01/31 03:21:43;;;;;;;6.83;4.10;;;;;;;1.10;100.00;151652.13;4992536;28;20854;-75
2023/01/31 03:24:10;;;;;;;6.20;4.73;;;;;;;1.09;100.00;151649.53;4987560;28;20559;-76
2023/01/31 03:26:37;;;;;;;8.70;4.93;;;;;;;1.08;100.00;151645.69;4961238;28;20465;-74
2023/01/31 03:29:06;;;;;;;5.37;3.80;;;;;;;1.07;100.00;151644.41;4985713;28;20546;-77
2023/01/31 03:31:36;;;;;;;11.47;5.30;;;;;;;1.06;100.00;151640.56;4961588;28;1096197;-74
2023/01/31 03:34:05;;;;;;;12.03;4.53;;;;;;;1.08;100.00;151645.69;4975818;28;20498;-74
2023/01/31 03:36:39;;;;;;;9.13;4.70;;;;;;;1.07;100.00;151644.41;5003741;28;20485;-74
2023/01/31 03:39:31;;;;;;;8.43;4.70;;;;;;;1.07;100.00;151643.13;5005194;28;20535;-76
2023/01/31 03:42:06;;;;;;;5.93;4.37;;;;;;;1.06;100.00;151641.81;4975853;28;20457;-74
2023/01/31 03:44:39;;;;;;;6.43;3.90;;;;;;;1.02;100.00;151631.56;4976199;28;20676;-77
2023/01/31 03:47:11;;;;;;;7.70;4.33;;;;;;;1.03;100.00;151634.09;4992431;28;20461;-77
2023/01/31 03:49:40;;;;;;;6.90;4.27;;;;;;;1.05;100.00;151639.28;4992661;28;20482;-76
2023/01/31 03:52:09;;;;;;;9.73;4.67;;;;;;;1.05;100.00;151639.28;5011856;28;20449;-77
2023/01/31 03:54:39;;;;;;;5.80;4.23;;;;;;;1.06;100.00;151640.56;5010656;28;20638;-77
2023/01/31 03:57:12;;;;;;;6.33;4.10;;;;;;;1.06;100.00;151641.81;4999621;28;20822;-77
2023/01/31 03:59:40;;;;;;;6.23;4.10;;;;;;;1.06;100.00;151641.81;5012789;28;20446;-77
2023/01/31 04:02:10;;;;;;;6.80;4.60;;;;;;;1.04;100.00;151636.69;4998027;28;20462;-77
2023/01/31 04:04:40;;;;;;;7.50;4.40;;;;;;;1.02;100.00;151631.56;5012818;28;20478;-77
2023/01/31 04:07:06;;;;;;;8.07;4.33;;;;;;;1.00;100.00;151626.44;5001853;28;20481;-77
2023/01/31 04:09:37;;;;;;;7.00;4.20;;;;;;;0.98;100.00;151621.28;4969574;28;20445;-77
2023/01/31 04:12:05;;;;;;;9.57;4.43;;;;;;;0.98;100.00;151621.28;4994901;28;20517;-77
2023/01/31 04:14:32;;;;;;;6.87;3.93;;;;;;;0.95;100.00;151612.31;5011304;28;20564;-77
2023/01/31 04:16:59;;;;;;;7.10;4.57;;;;;;;0.93;100.00;151607.13;5012423;28;21007;-77
2023/01/31 04:19:25;;;;;;;8.50;4.53;;;;;;;0.91;100.00;151603.31;5013404;28;20452;-77
2023/01/31 04:21:52;;;;;;;6.97;3.70;;;;;;;0.87;100.00;151593.06;5012533;28;20465;-77
2023/01/31 04:24:19;;;;;;;6.80;4.17;;;;;;;0.86;100.00;151589.19;4994537;28;20564;-77
2023/01/31 04:26:47;;;;;;;7.00;4.50;;;;;;;0.82;100.00;151580.16;5013714;28;20457;-77
2023/01/31 04:29:13;;;;;;;5.77;4.57;;;;;;;0.79;100.00;151571.22;5012494;28;20994;-77
2023/01/31 04:31:40;;;;;;;7.63;4.57;;;;;;;0.75;100.00;151562.22;4994117;28;20511;-77
2023/01/31 04:34:07;;;;;;;11.23;5.20;;;;;;;0.70;100.00;151548.09;4996657;28;20469;-77
2023/01/31 04:36:34;;;;;;;9.03;5.63;;;;;;;0.67;100.00;151541.66;5018355;28;20461;-77
2023/01/31 04:39:00;;;;;;;6.57;4.57;;;;;;;0.65;100.00;151535.25;5010751;28;20465;-77
2023/01/31 04:41:27;;;;;;;5.17;3.53;;;;;;;0.63;100.00;151531.41;5009691;28;20556;-77
2023/01/31 04:43:55;;;;;;;5.60;4.07;;;;;;;0.59;100.00;151521.13;5015549;28;20584;-77
2023/01/31 04:46:22;;;;;;;7.77;4.13;;;;;;;0.58;100.00;151519.81;5010415;28;20532;-76
2023/01/31 04:48:49;;;;;;;7.53;4.70;;;;;;;0.57;100.00;151516.00;5012185;28;20465;-76
2023/01/31 04:51:15;;;;;;;7.00;4.77;;;;;;;0.56;100.00;151513.41;5012227;28;20949;-76
2023/01/31 04:53:43;;;;;;;6.93;3.90;;;;;;;0.57;100.00;151516.00;5011385;28;20437;-76
2023/01/31 04:56:10;;;;;;;7.40;4.60;;;;;;;0.55;100.00;151512.16;5012877;28;20856;-76
2023/01/31 04:58:36;;;;;;;6.03;4.00;;;;;;;0.53;100.00;151505.75;5011939;28;20468;-76
2023/01/31 05:01:04;;;;;;;7.07;4.93;;;;;;;0.51;100.00;151501.88;5016891;28;20483;-76
2023/01/31 05:03:31;;;;;;;6.40;4.43;;;;;;;0.53;100.00;151507.00;5005427;28;20587;-76
2023/01/31 05:05:58;;;;;;;6.30;4.57;;;;;;;0.55;100.00;151512.16;5019998;28;20959;-76
2023/01/31 05:08:25;;;;;;;5.53;3.80;;;;;;;0.59;100.00;151522.41;5014829;28;20548;-76
2023/01/31 05:10:57;;;;;;;8.90;4.90;;;;;;;0.62;100.00;151528.81;5001659;28;20557;-76
2023/01/31 05:13:24;;;;;;;10.27;5.17;;;;;;;0.63;100.00;151531.41;4993768;28;20438;-76
2023/01/31 05:15:51;;;;;;;7.60;5.03;;;;;;;0.64;100.00;151533.94;5011482;28;20444;-76
2023/01/31 05:18:19;;;;;;;4.43;3.90;;;;;;;0.70;100.00;151548.09;5014863;28;20460;-76
2023/01/31 05:20:45;;;;;;;6.20;3.90;;;;;;;0.75;100.00;151562.22;5012658;28;20434;-76
2023/01/31 05:23:12;;;;;;;7.47;4.30;;;;;;;0.72;100.00;151554.50;5017062;28;20479;-76
2023/01/31 05:25:39;;;;;;;5.87;4.93;;;;;;;0.72;100.00;151553.22;5000940;28;20449;-76
2023/01/31 05:28:06;;;;;;;6.63;4.50;;;;;;;0.73;100.00;151557.09;5006330;28;20910;-76
2023/01/31 05:30:33;;;;;;;6.97;5.37;;;;;;;0.74;100.00;151558.38;5008618;28;20534;-76
2023/01/31 05:32:59;;;;;;;6.57;3.90;;;;;;;0.73;100.00;151557.09;5021226;28;20491;-76
2023/01/31 05:35:27;;;;;;;7.33;4.30;;;;;;;0.75;100.00;151562.22;4996399;28;20519;-76
2023/01/31 05:37:54;;;;;;;7.20;4.60;;;;;;;0.77;100.00;151567.34;5010863;28;20465;-76
2023/01/31 05:40:22;;;;;;;8.27;4.80;;;;;;;0.76;100.00;151564.81;5011587;28;20454;-76
2023/01/31 05:42:52;;;;;;;7.97;4.50;;;;;;;0.77;100.00;151567.34;4993638;28;20442;-76
2023/01/31 05:45:19;;;;;;;8.07;5.17;;;;;;;0.79;100.00;151571.22;5020864;28;21275;-76
2023/01/31 05:47:46;;;;;;;6.20;5.13;;;;;;;0.77;100.00;151567.34;5009295;28;20814;-76
2023/01/31 05:50:16;;;;;;;7.03;4.47;;;;;;;0.75;100.00;151562.22;4992232;28;20454;-76
2023/01/31 05:52:50;;;;;;;7.00;5.00;;;;;;;0.71;100.00;151551.97;5007656;28;20492;-77
2023/01/31 05:55:16;;;;;;;5.83;4.30;;;;;;;0.69;100.00;151545.53;5012274;28;20488;-76
2023/01/31 05:57:43;;;;;;;7.57;4.93;;;;;;;0.69;100.00;151546.78;4991622;28;20454;-76
2023/01/31 06:00:11;;;;;;;8.13;5.00;;;;;;;0.61;100.00;151527.53;4991815;28;20450;-76
2023/01/31 06:02:41;;;;;;;7.90;4.97;;;;;;;0.60;100.00;151525.00;4995237;28;20812;-77
2023/01/31 06:05:09;;;;;;;11.13;5.67;;;;;;;0.55;100.00;151512.16;5011378;28;20841;-76
2023/01/31 06:07:35;;;;;;;8.27;5.33;;;;;;;0.54;100.00;151508.28;5009245;28;20469;-76
2023/01/31 06:10:04;;;;;;;5.87;4.30;;;;;;;0.51;100.00;151500.56;4998268;28;20851;-76
2023/01/31 06:12:31;;;;;;;8.90;5.40;;;;;;;0.49;100.00;151496.75;5007620;28;20470;-76
2023/01/31 06:14:58;;;;;;;6.07;4.27;;;;;;;0.46;100.00;151487.75;5007198;28;20541;-76
2023/01/31 06:17:24;;;;;;;6.47;4.87;;;;;;;0.43;100.00;151480.03;5006840;28;20549;-76
2023/01/31 06:19:51;;;;;;;5.33;4.47;;;;;;;0.41;100.00;151474.91;4987226;28;20486;-76
2023/01/31 06:22:18;;;;;;;6.97;5.30;;;;;;;0.39;100.00;151469.78;4996748;28;20497;-76
2023/01/31 06:24:45;;;;;;;7.20;5.30;;;;;;;0.36;100.00;151463.38;5005249;28;20478;-76
2023/01/31 06:27:13;;;;;;;7.03;5.03;;;;;;;0.35;100.00;151459.50;5001243;28;20525;-77
2023/01/31 06:29:39;;;;;;;7.73;4.90;;;;;;;0.33;100.00;151455.66;5008501;28;20812;-76
2023/01/31 06:32:06;;;;;;;5.30;4.50;;;;;;;0.32;100.00;151451.84;4992305;28;20506;-76
2023/01/31 06:34:33;;;;;;;8.37;4.90;;;;;;;0.31;100.00;151449.25;4985142;28;20547;-76
2023/01/31 06:37:00;;;;;;;7.77;4.80;;;;;;;0.26;100.00;151437.72;4985549;28;20597;-76
2023/01/31 06:39:26;;;;;;;6.87;4.17;;;;;;;0.24;100.00;151431.28;4966278;28;20566;-76
2023/01/31 06:41:53;;;;;;;6.17;4.57;;;;;;;0.20;100.00;151422.28;4986430;28;20581;-88
2023/01/31 06:44:21;;;;;;;7.83;6.60;;;;;;;0.23;100.00;151428.72;4985259;28;20480;-89
2023/01/31 06:46:47;;;;;;;8.30;6.00;;;;;;;0.19;100.00;151418.41;4982724;28;20455;-89
2023/01/31 06:49:14;;;;;;;6.47;5.60;;;;;;;0.14;100.00;151405.59;4986626;28;20447;-89
2023/01/31 06:51:41;;;;;;;7.80;5.47;;;;;;;0.16;100.00;151410.75;4970443;28;20481;-88
2023/01/31 06:54:08;;;;;;;12.13;5.50;;;;;;;0.13;100.00;151403.06;4988025;28;20974;-89
2023/01/31 06:56:34;;;;;;;7.20;5.23;;;;;;;0.12;100.00;151401.75;4984535;28;20514;-88
2023/01/31 06:59:01;;;;;;;7.43;5.90;;;;;;;0.13;100.00;151403.06;4983399;28;20486;-89
2023/01/31 07:01:29;;;;;;;11.90;6.17;;;;;;;0.13;100.00;151404.34;4983489;28;20463;-88
2023/01/31 07:03:56;;;;;;;6.83;4.70;;;;;;;0.11;100.00;151399.16;4984382;28;20469;-88
2023/01/31 07:06:22;;;;;;;9.40;5.43;;;;;;;0.12;100.00;151400.47;4984288;28;20896;-88
2023/01/31 07:08:49;;;;;;;7.33;5.67;;;;;;;0.07;100.00;151388.94;4983291;28;20495;-88
2023/01/31 07:11:16;;;;;;;7.40;5.27;;;;;;;0.14;100.00;151405.59;4981729;28;20454;-89
2023/01/31 07:13:45;;;;;;;7.63;5.20;;;;;;;0.21;100.00;151423.59;4985739;28;20450;-88
2023/01/31 07:16:11;;;;;;;7.60;5.40;;;;;;;0.24;100.00;151431.28;4984543;28;20800;-88
2023/01/31 07:18:39;;;;;;;6.83;5.30;;;;;;;0.24;100.00;151431.28;4986257;28;20490;-88
2023/01/31 07:21:06;;;;;;;11.80;6.17;;;;;;;0.33;100.00;151454.38;4986078;28;20894;-87
2023/01/31 07:23:32;;;;;;;10.03;5.73;;;;;;;0.44;100.00;151482.63;4967371;28;20909;-88
2023/01/31 07:26:03;;;;;;;9.20;5.60;;;;;;;0.54;100.00;151509.59;4984593;28;20496;-88
2023/01/31 07:28:29;;;;;;;8.57;6.20;;;;;;;0.70;100.00;151549.38;4985355;28;20452;-88
2023/01/31 07:30:56;;;;;;;12.00;5.60;;;;;;;0.87;100.00;151593.06;4983539;28;20457;-88
2023/01/31 07:33:22;;;;;;;10.07;6.90;;;;;;;1.09;100.00;151648.25;5002818;28;20488;-88
2023/01/31 07:35:50;;;;;;;10.10;6.00;;;;;;;1.27;100.00;151693.22;4992751;28;20458;-88
2023/01/31 07:38:17;;;;;;;7.57;5.33;;;;;;;1.49;100.00;151749.72;4997382;28;20987;-89
2023/01/31 07:40:44;;;;;;;9.57;7.07;;;;;;;1.67;100.00;151795.97;5006809;28;20456;-89
2023/01/31 07:43:10;;;;;;;7.20;6.00;;;;;;;1.79;100.00;151826.84;4995242;28;20453;-88
2023/01/31 07:45:41;;;;;;;13.77;6.70;;;;;;;1.83;100.00;151837.13;5006978;28;20516;-88
2023/01/31 07:48:08;;;;;;;7.47;5.77;;;;;;;1.86;100.00;151844.84;5003674;28;20455;-88
2023/01/31 07:50:35;;;;;;;6.77;5.60;;;;;;;1.90;100.00;151855.16;4997504;28;20549;-89
2023/01/31 07:53:03;;;;;;;8.20;5.87;;;;;;;1.99;100.00;151878.25;5007263;28;20449;-89
2023/01/31 07:55:29;;;;;;;8.60;6.67;;;;;;;2.08;100.00;151901.41;4998811;28;20529;-89
2023/01/31 07:57:56;;;;;;;8.20;5.33;;;;;;;2.11;100.00;151909.13;5007005;28;20480;-90
2023/01/31 08:03:32;;;;;;;9.63;6.10;;;;;;;2.08;100.00;151901.41;4998650;28;20595;-89
2023/01/31 08:06:00;;;;;;;8.70;4.80;;;;;;;2.10;100.00;151906.53;4996801;28;20961;-88
2023/01/31 08:08:28;;;;;;;9.70;5.87;;;;;;;2.15;100.00;151918.09;4995609;28;21001;-89
2023/01/31 08:10:55;;;;;;;9.90;6.03;;;;;;;2.15;100.00;151919.41;4988946;28;20458;-89
2023/01/31 08:13:21;;;;;;;9.23;6.53;;;;;;;2.19;100.00;151929.72;5007987;28;20538;-89
2023/01/31 08:15:51;;;;;;;7.27;6.10;;;;;;;2.23;100.00;151939.97;5005813;28;20997;-88
2023/01/31 08:18:18;;;;;;;10.13;6.17;;;;;;;2.29;100.00;151955.41;4994909;28;20691;-88
2023/01/31 08:20:44;;;;;;;8.20;5.40;;;;;;;2.31;100.00;151959.25;4997135;28;20505;-89
2023/01/31 08:23:11;;;;;;;8.40;5.43;;;;;;;2.42;100.00;151988.84;4990287;28;21013;-89
2023/01/31 08:25:39;;;;;;;7.00;5.03;;;;;;;2.37;100.00;151976.00;5006016;28;20463;-89
2023/01/31 08:28:06;;;;;;;6.10;5.33;;;;;;;2.41;100.00;151984.97;5004342;28;20494;-88
2023/01/31 08:30:32;;;;;;;9.30;5.90;;;;;;;2.45;100.00;151996.56;4997855;28;21017;-87
2023/01/31 08:32:59;;;;;;;7.77;5.27;;;;;;;2.51;100.00;152009.41;5002150;28;20513;-87
2023/01/31 08:35:27;;;;;;;9.07;5.70;;;;;;;2.60;100.00;152032.53;4985049;28;20958;-87
2023/01/31 08:37:53;;;;;;;11.37;5.97;;;;;;;2.67;100.00;152050.56;4987104;28;20450;-86
2023/01/31 08:40:20;;;;;;;11.93;5.87;;;;;;;2.78;100.00;152078.88;5006176;28;20445;-85
2023/01/31 08:42:55;;;;;;;10.70;5.07;;;;;;;2.77;100.00;152076.28;4990137;28;20461;-85
2023/01/31 08:45:21;;;;;;;10.20;5.60;;;;;;;2.80;100.00;152084.03;4989330;28;20463;-86
2023/01/31 08:47:48;;;;;;;7.83;6.30;;;;;;;2.88;100.00;152105.91;4988349;28;20818;-84
2023/01/31 08:50:15;;;;;;;6.53;5.37;;;;;;;2.94;100.00;152121.31;4989440;28;20495;-84
2023/01/31 08:52:41;;;;;;;7.57;4.87;;;;;;;2.98;100.00;152130.31;4989423;28;20547;-85
2023/01/31 08:55:12;;;;;;;8.67;4.90;;;;;;;2.97;100.00;152127.75;4978288;28;20547;-85
2023/01/31 08:57:39;;;;;;;8.30;5.63;;;;;;;2.95;100.00;152122.59;4990321;28;20454;-85
2023/01/31 09:00:09;;;;;;;7.23;4.90;;;;;;;2.88;100.00;152104.59;4989095;28;20531;-85
2023/01/31 09:02:35;;;;;;;8.37;5.33;;;;;;;2.84;100.00;152094.28;4988814;28;20464;-85
2023/01/31 09:05:02;;;;;;;8.07;5.40;;;;;;;2.84;100.00;152094.28;4988085;28;20555;-85
2023/01/31 09:07:29;;;;;;;7.37;4.80;;;;;;;2.77;100.00;152077.59;4989383;28;20467;-86
2023/01/31 09:09:55;;;;;;;8.87;5.70;;;;;;;2.77;100.00;152076.28;4997514;28;20450;-86
2023/01/31 09:12:22;;;;;;;11.30;5.73;;;;;;;2.73;100.00;152065.97;4972287;28;20471;-85
2023/01/31 09:14:50;;;;;;;6.80;4.60;;;;;;;2.74;100.00;152068.56;4993901;28;20954;-85
2023/01/31 09:17:18;;;;;;;6.57;4.80;;;;;;;2.82;100.00;152089.16;4987348;28;20559;-85
2023/01/31 09:19:46;;;;;;;14.33;5.63;;;;;;;2.83;100.00;152093.00;5005910;28;20901;-85
2023/01/31 09:22:13;;;;;;;5.93;4.43;;;;;;;2.86;100.00;152100.72;4987302;28;20467;-85
2023/01/31 09:24:40;;;;;;;7.90;4.40;;;;;;;2.90;100.00;152109.75;4996212;28;20475;-85
2023/01/31 09:27:07;;;;;;;7.30;4.10;;;;;;;3.03;100.00;152143.19;4990760;28;20455;-85
2023/01/31 09:29:33;;;;;;;7.93;5.00;;;;;;;3.10;100.00;152159.94;4988588;28;20753;-84
2023/01/31 09:32:00;;;;;;;8.53;4.63;;;;;;;3.15;100.00;152174.03;4992134;28;20483;-84
2023/01/31 09:34:28;;;;;;;7.50;4.40;;;;;;;3.19;100.00;152184.38;4998770;28;20989;-84
2023/01/31 09:36:56;;;;;;;6.90;4.80;;;;;;;3.21;100.00;152189.50;5008188;28;20461;-84
2023/01/31 09:39:23;;;;;;;7.40;4.50;;;;;;;3.24;100.00;152195.94;4998787;28;20449;-84
2023/01/31 09:41:52;;;;;;;5.90;4.37;;;;;;;3.24;100.00;152195.94;4993456;28;20459;-84
2023/01/31 09:44:21;;;;;;;10.73;4.70;;;;;;;3.25;100.00;152199.81;5007527;28;20452;-84
2023/01/31 09:46:52;;;;;;;6.47;4.20;;;;;;;3.28;100.00;152207.56;5007117;28;20452;-84
2023/01/31 09:49:22;;;;;;;5.50;3.93;;;;;;;3.34;100.00;152222.97;4988038;28;20494;-84
2023/01/31 09:51:55;;;;;;;10.10;5.10;;;;;;;3.40;100.00;152237.13;5008355;28;20445;-84
2023/01/31 09:54:27;;;;;;;6.10;3.63;;;;;;;3.39;100.00;152234.59;4992981;28;20736;-85
2023/01/31 09:57:00;;;;;;;6.07;4.03;;;;;;;3.44;99.04;152247.44;4999104;28;20919;-84
2023/01/31 09:59:32;;;;;;;7.93;4.07;;;;;;;3.41;99.67;152241.00;4995985;28;20456;-84
2023/01/31 10:02:04;;;;;;;6.67;4.00;;;;;;;3.52;98.09;152269.28;5009353;28;20465;-84
2023/01/31 10:04:43;;;;;;;7.03;3.60;;;;;;;3.46;96.28;152253.88;5014716;28;20463;-85
2023/01/31 10:07:16;;;;;;;7.67;3.70;;;;;;;3.48;97.80;152257.72;5018306;28;20458;-84
2023/01/31 10:09:44;;;;;;;11.37;4.73;;;;;;;3.45;97.50;152251.28;5005087;28;20550;-84
2023/01/31 10:12:14;;;;;;;13.23;4.70;;;;;;;3.47;98.78;152256.44;4996681;28;20458;-84
2023/01/31 10:14:42;;;;;;;7.00;4.13;;;;;;;3.47;97.76;152256.44;5001053;28;20454;-85
2023/01/31 10:17:13;;;;;;;6.83;4.13;;;;;;;3.49;99.41;152261.59;5008249;28;20468;-85
2023/01/31 10:19:45;;;;;;;8.03;4.67;;;;;;;3.48;98.51;152259.00;4983688;28;20462;-84
2023/01/31 10:22:18;;;;;;;7.50;4.57;;;;;;;3.52;98.74;152269.28;4989189;28;20540;-85
2023/01/31 10:24:48;;;;;;;8.33;5.77;;;;;;;3.54;98.63;152274.47;4996137;28;20478;-84
2023/01/31 10:27:18;;;;;;;8.00;4.40;;;;;;;3.56;99.84;152279.63;4994666;28;20494;-84
2023/01/31 10:29:49;;;;;;;7.93;4.80;;;;;;;3.57;98.25;152282.16;5000093;28;20447;-84
2023/01/31 10:32:21;;;;;;;6.50;4.13;;;;;;;3.58;98.59;152284.75;4989835;28;20488;-84
2023/01/31 10:34:51;;;;;;;7.20;4.53;;;;;;;3.62;97.75;152293.78;4990364;28;20475;-84
2023/01/31 10:37:27;;;;;;;5.47;4.03;;;;;;;3.53;97.23;152271.88;5007344;28;20498;-84
2023/01/31 10:39:56;;;;;;;6.17;4.30;;;;;;;3.55;97.81;152275.72;4996622;28;20457;-84
2023/01/31 10:54:17;;;;;;;7.10;4.20;;;;;;;3.74;96.97;152323.34;5004039;28;20447;-84
2023/01/31 10:56:45;;;;;;;6.47;3.53;;;;;;;3.67;98.24;152306.66;5007324;28;20550;-84
2023/01/31 10:59:13;;;;;;;7.33;3.90;;;;;;;3.67;96.41;152307.94;4996171;28;20475;-84
2023/01/31 11:01:41;;;;;;;4.73;3.50;;;;;;;3.66;96.49;152304.06;4990606;28;20469;-84
2023/01/31 11:04:25;;;;;;;5.27;3.23;;;;;;;3.68;97.09;152310.50;4997142;28;20943;-84
2023/01/31 11:06:52;;;;;;;7.63;3.53;;;;;;;3.67;96.91;152307.94;5006779;28;20588;-84
2023/01/31 11:09:21;;;;;;;6.60;3.10;;;;;;;3.66;96.21;152305.34;5008026;28;20806;-84
2023/01/31 11:11:55;;;;;;;3.37;2.70;;;;;;;3.62;97.97;152295.06;5003938;28;20813;-84
2023/01/31 11:14:22;;;;;;;6.13;3.47;;;;;;;3.73;95.97;152320.81;4998431;28;20482;-84
2023/01/31 11:16:50;;;;;;;7.77;3.70;;;;;;;3.66;97.74;152305.34;5008022;28;20459;-84
2023/01/31 11:19:21;;;;;;;5.47;3.50;;;;;;;3.74;96.34;152323.34;5006776;28;21000;-84
2023/01/31 11:21:50;;;;;;;5.43;3.50;;;;;;;3.74;95.55;152323.34;4995638;28;20451;-84
2023/01/31 11:24:21;;;;;;;6.00;3.73;;;;;;;3.80;95.58;152338.81;4997158;28;20451;-84
2023/01/31 11:26:52;;;;;;;3.97;3.13;;;;;;;3.91;95.59;152367.16;4998415;28;20477;-84
2023/01/31 11:29:23;;;;;;;7.43;3.63;;;;;;;4.00;95.68;152390.31;4997565;28;20523;-84
2023/01/31 11:31:50;;;;;;;5.30;3.20;;;;;;;3.97;94.66;152383.88;4994190;28;20487;-84
2023/01/31 11:34:22;;;;;;;6.90;3.17;;;;;;;3.97;94.83;152382.63;5007561;28;20558;-84
2023/01/31 11:36:48;;;;;;;8.00;3.80;;;;;;;3.97;95.09;152383.88;4997452;28;20460;-84
2023/01/31 11:39:26;;;;;;;6.47;3.90;;;;;;;4.05;93.75;152403.22;4996815;28;20796;-84
2023/01/31 11:41:53;;;;;;;4.50;3.23;;;;;;;3.98;94.71;152386.47;4998082;28;20452;-84
2023/01/31 11:44:21;;;;;;;3.23;2.90;;;;;;;3.91;94.96;152367.16;5007047;28;20463;-84
2023/01/31 11:46:51;;;;;;;5.63;3.40;;;;;;;3.97;94.78;152382.63;4998001;28;20470;-84
2023/01/31 11:49:33;;;;;;;4.63;3.53;;;;;;;3.96;94.56;152380.03;4997643;28;20977;-84
2023/01/31 11:52:02;;;;;;;6.10;3.60;;;;;;;3.95;95.22;152377.44;5004938;28;20511;-84
2023/01/31 11:54:31;;;;;;;4.50;3.20;;;;;;;3.96;94.24;152380.03;5007632;28;20452;-84